sensor_id;sensor_type;location;lat;lon;timestamp;pressure;altitude;pressure_sealevel;temperature;humidity
59375;BME280;45172;55.006;73.460;2022-09-03T00:02:01;100411.25;;;12.23;nan
59375;BME280;45172;55.006;73.460;2022-09-03T00:04:50;100398.81;;;12.15;nan
59375;BME280;45172;55.006;73.460;2022-09-03T00:09:59;100395.56;;;12.46;nan
59375;BME280;45172;55.006;73.460;2022-09-03T00:12:32;100383.94;;;12.36;nan
59375;BME280;45172;55.006;73.460;2022-09-03T00:15:17;100395.53;;;12.44;nan
59375;BME280;45172;55.006;73.460;2022-09-03T00:17:54;100387.31;;;12.15;nan
59375;BME280;45172;55.006;73.460;2022-09-03T00:21:03;100388.13;;;12.08;nan
59375;BME280;45172;55.006;73.460;2022-09-03T00:23:44;100383.94;;;12.35;nan
59375;BME280;45172;55.006;73.460;2022-09-03T00:28:48;100381.31;;;12.38;nan
59375;BME280;45172;55.006;73.460;2022-09-03T00:31:24;100380.44;;;12.42;nan
59375;BME280;45172;55.006;73.460;2022-09-03T00:33:57;100376.63;;;12.09;nan
59375;BME280;45172;55.006;73.460;2022-09-03T00:36:44;100386.59;;;12.35;nan
59375;BME280;45172;55.006;73.460;2022-09-03T00:39:12;100389.34;;;12.47;nan
59375;BME280;45172;55.006;73.460;2022-09-03T00:41:43;100382.31;;;12.51;nan
59375;BME280;45172;55.006;73.460;2022-09-03T00:50:02;100371.81;;;12.74;nan
59375;BME280;45172;55.006;73.460;2022-09-03T00:55:38;100371.06;;;12.89;nan
59375;BME280;45172;55.006;73.460;2022-09-03T00:58:40;100366.81;;;13.24;nan
59375;BME280;45172;55.006;73.460;2022-09-03T01:07:00;100347.53;;;13.87;nan
59375;BME280;45172;55.006;73.460;2022-09-03T01:09:52;100360.00;;;14.08;nan
59375;BME280;45172;55.006;73.460;2022-09-03T01:12:38;100356.47;;;14.23;nan
59375;BME280;45172;55.006;73.460;2022-09-03T01:15:31;100345.81;;;14.44;nan
59375;BME280;45172;55.006;73.460;2022-09-03T01:29:14;100345.69;;;15.23;nan
59375;BME280;45172;55.006;73.460;2022-09-03T01:41:03;100326.72;;;15.74;nan
59375;BME280;45172;55.006;73.460;2022-09-03T01:46:38;100295.44;;;15.97;nan
59375;BME280;45172;55.006;73.460;2022-09-03T01:49:17;100333.47;;;16.32;nan
59375;BME280;45172;55.006;73.460;2022-09-03T01:54:44;100316.22;;;16.68;nan
59375;BME280;45172;55.006;73.460;2022-09-03T02:00:11;100309.69;;;16.96;nan
59375;BME280;45172;55.006;73.460;2022-09-03T02:02:40;100303.22;;;17.16;nan
59375;BME280;45172;55.006;73.460;2022-09-03T02:05:11;100295.88;;;17.30;nan
59375;BME280;45172;55.006;73.460;2022-09-03T02:07:45;100253.25;;;17.18;nan
59375;BME280;45172;55.006;73.460;2022-09-03T02:10:25;100291.91;;;17.61;nan
59375;BME280;45172;55.006;73.460;2022-09-03T02:13:09;100251.00;;;17.49;nan
59375;BME280;45172;55.006;73.460;2022-09-03T02:15:38;100295.97;;;17.88;nan
59375;BME280;45172;55.006;73.460;2022-09-03T02:18:20;100299.34;;;18.01;nan
59375;BME280;45172;55.006;73.460;2022-09-03T02:20:53;100302.66;;;18.19;nan
59375;BME280;45172;55.006;73.460;2022-09-03T02:23:19;100296.25;;;18.28;nan
59375;BME280;45172;55.006;73.460;2022-09-03T02:25:50;100290.63;;;18.42;nan
59375;BME280;45172;55.006;73.460;2022-09-03T02:28:17;100287.69;;;18.56;nan
59375;BME280;45172;55.006;73.460;2022-09-03T02:30:47;100290.19;;;18.67;nan
59375;BME280;45172;55.006;73.460;2022-09-03T02:33:14;100283.69;;;18.79;nan
59375;BME280;45172;55.006;73.460;2022-09-03T02:35:46;100248.88;;;18.77;nan
59375;BME280;45172;55.006;73.460;2022-09-03T02:38:15;100280.50;;;19.05;nan
59375;BME280;45172;55.006;73.460;2022-09-03T02:40:42;100272.31;;;19.13;nan
59375;BME280;45172;55.006;73.460;2022-09-03T02:43:35;100247.22;;;19.15;nan
59375;BME280;45172;55.006;73.460;2022-09-03T02:46:16;100252.16;;;19.34;nan
59375;BME280;45172;55.006;73.460;2022-09-03T02:48:44;100232.63;;;19.27;nan
59375;BME280;45172;55.006;73.460;2022-09-03T02:51:10;100209.28;;;19.29;nan
59375;BME280;45172;55.006;73.460;2022-09-03T02:53:47;100237.16;;;19.65;nan
59375;BME280;45172;55.006;73.460;2022-09-03T02:56:12;100229.56;;;19.81;nan
59375;BME280;45172;55.006;73.460;2022-09-03T02:58:38;100241.81;;;19.96;nan
59375;BME280;45172;55.006;73.460;2022-09-03T03:01:06;100234.44;;;20.03;nan
59375;BME280;45172;55.006;73.460;2022-09-03T03:03:46;100220.09;;;20.04;nan
59375;BME280;45172;55.006;73.460;2022-09-03T03:06:14;100237.28;;;20.31;nan
59375;BME280;45172;55.006;73.460;2022-09-03T03:09:04;100234.34;;;20.40;nan
59375;BME280;45172;55.006;73.460;2022-09-03T03:11:32;100239.28;;;20.58;nan
59375;BME280;45172;55.006;73.460;2022-09-03T03:14:01;100245.06;;;20.75;nan
59375;BME280;45172;55.006;73.460;2022-09-03T03:16:37;100235.72;;;20.89;nan
59375;BME280;45172;55.006;73.460;2022-09-03T03:19:03;100215.00;;;20.92;nan
59375;BME280;45172;55.006;73.460;2022-09-03T03:26:21;100220.72;;;21.40;nan
59375;BME280;45172;55.006;73.460;2022-09-03T03:31:24;100180.91;;;21.50;nan
59375;BME280;45172;55.006;73.460;2022-09-03T03:33:54;100223.56;;;21.93;nan
59375;BME280;45172;55.006;73.460;2022-09-03T03:36:24;100224.84;;;22.08;nan
59375;BME280;45172;55.006;73.460;2022-09-03T03:38:55;100212.75;;;22.20;nan
59375;BME280;45172;55.006;73.460;2022-09-03T03:41:24;100208.81;;;22.30;nan
59375;BME280;45172;55.006;73.460;2022-09-03T03:43:54;100192.38;;;22.36;nan
59375;BME280;45172;55.006;73.460;2022-09-03T03:46:22;100174.59;;;22.30;nan
59375;BME280;45172;55.006;73.460;2022-09-03T03:48:51;100200.22;;;22.69;nan
59375;BME280;45172;55.006;73.460;2022-09-03T03:51:27;100210.31;;;22.88;nan
59375;BME280;45172;55.006;73.460;2022-09-03T03:53:58;100200.00;;;22.99;nan
59375;BME280;45172;55.006;73.460;2022-09-03T03:56:25;100194.03;;;23.13;nan
59375;BME280;45172;55.006;73.460;2022-09-03T03:58:53;100187.66;;;23.16;nan
59375;BME280;45172;55.006;73.460;2022-09-03T04:01:22;100199.50;;;23.36;nan
59375;BME280;45172;55.006;73.460;2022-09-03T04:03:48;100189.25;;;23.44;nan
59375;BME280;45172;55.006;73.460;2022-09-03T04:06:16;100182.47;;;23.56;nan
59375;BME280;45172;55.006;73.460;2022-09-03T04:08:45;100159.06;;;23.55;nan
59375;BME280;45172;55.006;73.460;2022-09-03T04:11:20;100164.72;;;23.71;nan
59375;BME280;45172;55.006;73.460;2022-09-03T04:13:47;100177.47;;;23.90;nan
59375;BME280;45172;55.006;73.460;2022-09-03T04:16:25;100138.94;;;23.85;nan
59375;BME280;45172;55.006;73.460;2022-09-03T04:18:54;100171.69;;;24.20;nan
59375;BME280;45172;55.006;73.460;2022-09-03T04:21:26;100166.91;;;24.27;nan
59375;BME280;45172;55.006;73.460;2022-09-03T04:23:53;100171.91;;;24.36;nan
59375;BME280;45172;55.006;73.460;2022-09-03T04:26:30;100174.19;;;24.45;nan
59375;BME280;45172;55.006;73.460;2022-09-03T04:29:08;100155.28;;;24.44;nan
59375;BME280;45172;55.006;73.460;2022-09-03T04:31:38;100163.31;;;24.66;nan
59375;BME280;45172;55.006;73.460;2022-09-03T04:34:24;100165.25;;;24.83;nan
59375;BME280;45172;55.006;73.460;2022-09-03T04:36:55;100162.69;;;24.99;nan
59375;BME280;45172;55.006;73.460;2022-09-03T04:39:27;100163.38;;;25.05;nan
59375;BME280;45172;55.006;73.460;2022-09-03T04:41:53;100159.28;;;25.33;nan
59375;BME280;45172;55.006;73.460;2022-09-03T04:44:21;100144.47;;;25.40;nan
59375;BME280;45172;55.006;73.460;2022-09-03T04:46:57;100131.03;;;25.38;nan
59375;BME280;45172;55.006;73.460;2022-09-03T04:49:23;100132.91;;;25.36;nan
59375;BME280;45172;55.006;73.460;2022-09-03T04:51:49;100122.31;;;25.31;nan
59375;BME280;45172;55.006;73.460;2022-09-03T04:54:15;100142.19;;;25.50;nan
59375;BME280;45172;55.006;73.460;2022-09-03T04:56:41;100134.34;;;25.63;nan
59375;BME280;45172;55.006;73.460;2022-09-03T04:59:13;100155.91;;;25.83;nan
59375;BME280;45172;55.006;73.460;2022-09-03T05:01:39;100144.66;;;26.09;nan
59375;BME280;45172;55.006;73.460;2022-09-03T05:04:06;100140.91;;;26.29;nan
59375;BME280;45172;55.006;73.460;2022-09-03T05:06:43;100148.81;;;26.34;nan
59375;BME280;45172;55.006;73.460;2022-09-03T05:09:19;100122.44;;;26.36;nan
59375;BME280;45172;55.006;73.460;2022-09-03T05:11:46;100129.00;;;26.65;nan
59375;BME280;45172;55.006;73.460;2022-09-03T05:14:21;100135.34;;;26.98;nan
59375;BME280;45172;55.006;73.460;2022-09-03T05:16:53;100131.69;;;27.31;nan
59375;BME280;45172;55.006;73.460;2022-09-03T05:19:18;100084.66;;;27.29;nan
59375;BME280;45172;55.006;73.460;2022-09-03T05:21:45;100125.44;;;27.61;nan
59375;BME280;45172;55.006;73.460;2022-09-03T05:24:35;100078.69;;;27.39;nan
59375;BME280;45172;55.006;73.460;2022-09-03T05:27:02;100100.97;;;27.76;nan
59375;BME280;45172;55.006;73.460;2022-09-03T05:29:30;100110.91;;;27.77;nan
59375;BME280;45172;55.006;73.460;2022-09-03T05:31:58;100085.94;;;27.54;nan
59375;BME280;45172;55.006;73.460;2022-09-03T05:34:25;100087.59;;;27.57;nan
59375;BME280;45172;55.006;73.460;2022-09-03T05:36:51;100059.38;;;27.43;nan
59375;BME280;45172;55.006;73.460;2022-09-03T05:39:18;100106.69;;;27.71;nan
59375;BME280;45172;55.006;73.460;2022-09-03T05:41:50;100104.09;;;27.70;nan
59375;BME280;45172;55.006;73.460;2022-09-03T05:44:18;100091.22;;;27.57;nan
59375;BME280;45172;55.006;73.460;2022-09-03T05:46:50;100093.78;;;27.75;nan
59375;BME280;45172;55.006;73.460;2022-09-03T05:49:16;100092.16;;;27.87;nan
59375;BME280;45172;55.006;73.460;2022-09-03T05:51:42;100105.72;;;28.17;nan
59375;BME280;45172;55.006;73.460;2022-09-03T05:54:15;100101.09;;;28.49;nan
59375;BME280;45172;55.006;73.460;2022-09-03T05:56:41;100059.53;;;28.60;nan
59375;BME280;45172;55.006;73.460;2022-09-03T05:59:15;100078.03;;;29.11;nan
59375;BME280;45172;55.006;73.460;2022-09-03T06:01:43;100048.50;;;29.18;nan
59375;BME280;45172;55.006;73.460;2022-09-03T06:04:16;100039.56;;;29.29;nan
59375;BME280;45172;55.006;73.460;2022-09-03T06:06:44;100076.66;;;29.46;nan
59375;BME280;45172;55.006;73.460;2022-09-03T06:09:13;100081.56;;;29.26;nan
59375;BME280;45172;55.006;73.460;2022-09-03T06:11:44;100089.06;;;29.22;nan
59375;BME280;45172;55.006;73.460;2022-09-03T06:14:38;100060.28;;;28.91;nan
59375;BME280;45172;55.006;73.460;2022-09-03T06:17:04;100058.22;;;28.80;nan
59375;BME280;45172;55.006;73.460;2022-09-03T06:19:35;100100.34;;;29.03;nan
59375;BME280;45172;55.006;73.460;2022-09-03T06:22:11;100097.25;;;28.95;nan
59375;BME280;45172;55.006;73.460;2022-09-03T06:24:38;100106.09;;;28.98;nan
59375;BME280;45172;55.006;73.460;2022-09-03T06:27:04;100093.66;;;28.94;nan
59375;BME280;45172;55.006;73.460;2022-09-03T06:29:31;100114.19;;;29.00;nan
59375;BME280;45172;55.006;73.460;2022-09-03T06:31:57;100097.84;;;28.85;nan
59375;BME280;45172;55.006;73.460;2022-09-03T06:34:24;100094.81;;;28.90;nan
59375;BME280;45172;55.006;73.460;2022-09-03T06:37:03;100108.56;;;28.89;nan
59375;BME280;45172;55.006;73.460;2022-09-03T06:39:29;100110.19;;;28.91;nan
59375;BME280;45172;55.006;73.460;2022-09-03T06:41:55;100108.38;;;28.92;nan
59375;BME280;45172;55.006;73.460;2022-09-03T06:44:21;100085.78;;;28.90;nan
59375;BME280;45172;55.006;73.460;2022-09-03T06:46:49;100114.81;;;29.18;nan
59375;BME280;45172;55.006;73.460;2022-09-03T06:49:23;100118.63;;;29.43;nan
59375;BME280;45172;55.006;73.460;2022-09-03T06:51:50;100100.06;;;29.35;nan
59375;BME280;45172;55.006;73.460;2022-09-03T06:54:27;100133.13;;;29.58;nan
59375;BME280;45172;55.006;73.460;2022-09-03T06:57:08;100114.13;;;29.57;nan
59375;BME280;45172;55.006;73.460;2022-09-03T06:59:34;100118.84;;;29.67;nan
59375;BME280;45172;55.006;73.460;2022-09-03T07:02:10;100114.38;;;29.79;nan
59375;BME280;45172;55.006;73.460;2022-09-03T07:04:36;100106.31;;;29.91;nan
59375;BME280;45172;55.006;73.460;2022-09-03T07:07:02;100102.34;;;30.10;nan
59375;BME280;45172;55.006;73.460;2022-09-03T07:09:28;100075.66;;;30.00;nan
59375;BME280;45172;55.006;73.460;2022-09-03T07:11:56;100119.38;;;30.39;nan
59375;BME280;45172;55.006;73.460;2022-09-03T07:14:23;100124.81;;;30.52;nan
59375;BME280;45172;55.006;73.460;2022-09-03T07:16:49;100125.34;;;30.57;nan
59375;BME280;45172;55.006;73.460;2022-09-03T07:19:26;100125.78;;;30.64;nan
59375;BME280;45172;55.006;73.460;2022-09-03T07:21:52;100120.13;;;30.67;nan
59375;BME280;45172;55.006;73.460;2022-09-03T07:24:18;100109.41;;;30.77;nan
59375;BME280;45172;55.006;73.460;2022-09-03T07:26:49;100128.50;;;30.90;nan
59375;BME280;45172;55.006;73.460;2022-09-03T07:29:17;100139.84;;;30.97;nan
59375;BME280;45172;55.006;73.460;2022-09-03T07:31:49;100132.19;;;31.02;nan
59375;BME280;45172;55.006;73.460;2022-09-03T07:34:21;100100.72;;;30.96;nan
59375;BME280;45172;55.006;73.460;2022-09-03T07:36:52;100127.75;;;31.25;nan
59375;BME280;45172;55.006;73.460;2022-09-03T07:39:23;100137.38;;;31.31;nan
59375;BME280;45172;55.006;73.460;2022-09-03T07:41:50;100148.06;;;31.34;nan
59375;BME280;45172;55.006;73.460;2022-09-03T07:44:18;100143.47;;;31.35;nan
59375;BME280;45172;55.006;73.460;2022-09-03T07:46:48;100149.66;;;31.12;nan
59375;BME280;45172;55.006;73.460;2022-09-03T07:49:15;100116.19;;;31.09;nan
59375;BME280;45172;55.006;73.460;2022-09-03T07:51:42;100132.44;;;31.23;nan
59375;BME280;45172;55.006;73.460;2022-09-03T07:54:09;100128.53;;;31.27;nan
59375;BME280;45172;55.006;73.460;2022-09-03T07:56:36;100135.69;;;31.41;nan
59375;BME280;45172;55.006;73.460;2022-09-03T07:59:03;100105.00;;;31.25;nan
59375;BME280;45172;55.006;73.460;2022-09-03T08:01:35;100137.59;;;31.52;nan
59375;BME280;45172;55.006;73.460;2022-09-03T08:04:02;100134.50;;;31.57;nan
59375;BME280;45172;55.006;73.460;2022-09-03T08:06:32;100138.75;;;31.61;nan
59375;BME280;45172;55.006;73.460;2022-09-03T08:09:01;100133.75;;;31.55;nan
59375;BME280;45172;55.006;73.460;2022-09-03T08:11:40;100146.25;;;31.70;nan
59375;BME280;45172;55.006;73.460;2022-09-03T08:14:13;100133.06;;;31.76;nan
59375;BME280;45172;55.006;73.460;2022-09-03T08:16:45;100124.63;;;31.79;nan
59375;BME280;45172;55.006;73.460;2022-09-03T08:19:20;100122.00;;;31.77;nan
59375;BME280;45172;55.006;73.460;2022-09-03T08:21:47;100143.75;;;31.92;nan
59375;BME280;45172;55.006;73.460;2022-09-03T08:24:15;100142.13;;;31.89;nan
59375;BME280;45172;55.006;73.460;2022-09-03T08:26:50;100154.97;;;32.00;nan
59375;BME280;45172;55.006;73.460;2022-09-03T08:29:16;100143.28;;;31.98;nan
59375;BME280;45172;55.006;73.460;2022-09-03T08:31:42;100163.34;;;32.10;nan
59375;BME280;45172;55.006;73.460;2022-09-03T08:34:10;100153.59;;;31.94;nan
59375;BME280;45172;55.006;73.460;2022-09-03T08:36:42;100130.94;;;31.68;nan
